createdAt,value
2023-02-02T00:02:05.209Z,94.14
2023-02-02T00:06:17.358Z,94.07
2023-02-02T00:10:29.104Z,94.33
2023-02-02T00:14:40.941Z,94.57
2023-02-02T00:18:45.481Z,94.53
2023-02-02T00:22:57.620Z,94.77
2023-02-02T00:27:10.001Z,95.13
2023-02-02T00:31:22.606Z,94.96
2023-02-02T00:35:35.321Z,94.86
2023-02-02T00:39:40.576Z,94.97
2023-02-02T00:43:52.256Z,95.00
2023-02-02T00:48:04.532Z,95.06
2023-02-02T00:52:16.157Z,94.93
2023-02-02T00:56:28.476Z,95.30
2023-02-02T01:00:41.030Z,95.23
2023-02-02T01:04:53.678Z,95.39
2023-02-02T01:09:05.544Z,95.55
2023-02-02T01:13:50.701Z,95.35
2023-02-02T01:17:54.276Z,95.74
2023-02-02T01:22:06.849Z,95.86
2023-02-02T01:26:18.752Z,96.00
2023-02-02T01:30:30.937Z,96.22
2023-02-02T01:34:42.876Z,95.97
2023-02-02T01:39:14.077Z,96.25
2023-02-02T01:43:15.433Z,96.34
2023-02-02T01:47:27.647Z,96.71
2023-02-02T01:51:42.798Z,96.90
2023-02-02T01:55:55.273Z,96.87
2023-02-02T02:00:06.860Z,97.28
2023-02-02T02:04:38.152Z,97.53
2023-02-02T02:08:52.347Z,97.23
2023-02-02T02:13:04.583Z,97.27
2023-02-02T02:17:33.357Z,97.15
2023-02-02T02:21:46.121Z,96.91
2023-02-02T02:25:56.676Z,96.63
2023-02-02T02:30:12.149Z,96.54
2023-02-02T02:34:22.956Z,96.39
2023-02-02T02:38:40.897Z,96.25
2023-02-02T02:42:52.765Z,96.19
2023-02-02T02:47:04.931Z,96.39
2023-02-02T02:51:17.852Z,96.21
2023-02-02T02:55:30.261Z,96.00
2023-02-02T02:59:42.583Z,96.35
2023-02-02T03:03:53.879Z,96.46
2023-02-02T03:08:08.664Z,96.45
2023-02-02T03:12:20.674Z,96.39
2023-02-02T03:16:51.630Z,96.55
2023-02-02T03:21:03.522Z,96.29
2023-02-02T03:25:15.330Z,96.53
2023-02-02T03:29:26.412Z,96.33
2023-02-02T03:33:38.551Z,96.75
2023-02-02T03:37:58.531Z,96.83
2023-02-02T03:42:05.133Z,96.91
2023-02-02T03:46:17.946Z,96.90
2023-02-02T03:50:30.036Z,96.66
2023-02-02T03:54:42.133Z,97.18
2023-02-02T03:58:54.702Z,97.11
2023-02-02T04:03:07.274Z,97.22
2023-02-02T04:07:32.931Z,97.22
2023-02-02T04:11:44.653Z,97.31
2023-02-02T04:15:56.659Z,97.05
2023-02-02T04:20:03.598Z,96.91
2023-02-02T04:24:15.350Z,96.91
2023-02-02T04:28:27.247Z,96.56
2023-02-02T04:32:39.278Z,96.49
2023-02-02T04:36:51.672Z,96.61
2023-02-02T04:40:55.741Z,96.58
2023-02-02T04:45:08.078Z,96.47
2023-02-02T04:49:20.469Z,96.52
2023-02-02T04:53:46.382Z,96.68
2023-02-02T04:57:58.115Z,96.58
2023-02-02T05:02:10.273Z,96.72
2023-02-02T05:06:23.065Z,96.57
2023-02-02T05:10:35.831Z,96.14
2023-02-02T05:14:48.108Z,95.92
2023-02-02T05:18:59.950Z,96.08
2023-02-02T05:23:12.053Z,95.31
2023-02-02T05:27:24.451Z,94.22
2023-02-02T05:31:31.638Z,93.22
2023-02-02T05:35:44.134Z,92.56
2023-02-02T05:39:56.704Z,92.28
2023-02-02T05:44:08.794Z,92.47
2023-02-02T05:48:12.662Z,92.42
2023-02-02T05:52:18.055Z,92.50
2023-02-02T05:56:23.059Z,92.48
2023-02-02T06:00:35.011Z,92.89
2023-02-02T06:04:47.163Z,93.00
2023-02-02T06:08:59.495Z,93.28
2023-02-02T06:13:16.823Z,93.45
2023-02-02T06:17:29.162Z,93.71
2023-02-02T06:21:41.530Z,93.60
2023-02-02T06:25:53.586Z,93.89
2023-02-02T06:30:00.831Z,94.16
2023-02-02T06:34:12.725Z,94.26
2023-02-02T06:38:25.088Z,94.71
2023-02-02T06:42:30.864Z,95.12
2023-02-02T06:46:42.730Z,95.94
2023-02-02T06:50:54.785Z,96.45
2023-02-02T06:55:07.124Z,97.00
2023-02-02T06:59:19.173Z,96.87
2023-02-02T07:03:31.791Z,96.53
2023-02-02T07:07:42.512Z,96.32
2023-02-02T07:11:49.445Z,96.25
2023-02-02T07:16:01.258Z,95.33
2023-02-02T07:20:13.261Z,94.79
2023-02-02T07:24:19.881Z,94.31
2023-02-02T07:28:35.234Z,93.83
2023-02-02T07:32:38.412Z,93.80
2023-02-02T07:36:50.371Z,93.64
2023-02-02T07:41:02.718Z,93.70
2023-02-02T07:45:27.021Z,93.12
2023-02-02T07:49:39.645Z,92.58
2023-02-02T07:53:50.245Z,92.06
2023-02-02T07:58:02.436Z,92.28
2023-02-02T08:02:14.956Z,91.81
2023-02-02T08:06:27.041Z,91.21
2023-02-02T08:10:40.303Z,91.43
2023-02-02T08:14:52.433Z,91.18
2023-02-02T08:19:04.453Z,90.88
2023-02-02T08:23:16.405Z,90.50
2023-02-02T08:27:28.435Z,90.47
2023-02-02T08:31:40.229Z,90.34
2023-02-02T08:36:04.662Z,89.99
2023-02-02T08:40:16.288Z,89.60
2023-02-02T08:44:42.087Z,89.50
2023-02-02T08:49:00.146Z,88.93
2023-02-02T08:53:12.119Z,89.12
2023-02-02T08:57:23.909Z,89.25
2023-02-02T09:01:36.496Z,88.16
2023-02-02T09:05:48.525Z,88.39
2023-02-02T09:10:00.656Z,88.08
2023-02-02T09:14:12.818Z,87.36
2023-02-02T09:18:39.161Z,86.78
2023-02-02T09:22:50.979Z,86.51
2023-02-02T09:27:06.389Z,86.33
2023-02-02T09:31:32.629Z,85.08
2023-02-02T09:35:46.785Z,85.24
2023-02-02T09:39:59.103Z,85.94
2023-02-02T09:44:09.676Z,85.30
2023-02-02T09:48:21.160Z,84.34
2023-02-02T09:52:36.221Z,84.36
2023-02-02T09:56:48.818Z,84.26
2023-02-02T10:01:04.178Z,84.28
2023-02-02T10:05:16.189Z,84.08
2023-02-02T10:09:28.940Z,82.23
2023-02-02T10:13:41.341Z,82.56
2023-02-02T10:18:06.087Z,81.94
2023-02-02T10:22:30.497Z,80.93
2023-02-02T10:26:45.641Z,80.31
2023-02-02T10:31:01.352Z,80.66
2023-02-02T10:35:14.790Z,80.74
2023-02-02T10:39:25.643Z,81.38
2023-02-02T10:43:36.326Z,81.88
2023-02-02T10:47:42.611Z,81.96
2023-02-02T10:52:00.427Z,82.96
2023-02-02T10:56:10.430Z,84.32
2023-02-02T11:00:45.058Z,84.04
2023-02-02T11:04:55.261Z,84.11
2023-02-02T11:09:05.500Z,82.51
2023-02-02T11:13:18.145Z,82.64
2023-02-02T11:17:30.217Z,83.99
2023-02-02T11:21:43.442Z,85.03
2023-02-02T11:25:53.873Z,85.72
2023-02-02T11:30:06.271Z,86.15
2023-02-02T11:34:20.459Z,87.18
2023-02-02T11:38:36.063Z,86.40
2023-02-02T11:43:07.472Z,86.91
2023-02-02T11:47:19.006Z,87.58
2023-02-02T11:51:31.203Z,88.36
2023-02-02T11:55:43.272Z,88.44
2023-02-02T12:00:07.337Z,88.35
2023-02-02T12:04:39.604Z,88.54
2023-02-02T12:08:51.784Z,88.45
2023-02-02T12:12:57.704Z,88.28
2023-02-02T12:17:07.401Z,88.32
2023-02-02T12:21:18.123Z,86.15
2023-02-02T12:25:28.788Z,85.79
2023-02-02T12:29:40.634Z,85.60
2023-02-02T12:33:55.684Z,84.57
2023-02-02T12:38:14.765Z,85.08
2023-02-02T12:42:33.003Z,84.39
2023-02-02T12:46:44.026Z,85.32
2023-02-02T12:50:54.582Z,85.53
2023-02-02T12:55:06.794Z,85.38
2023-02-02T12:59:19.523Z,86.25
2023-02-02T13:03:31.869Z,87.09
2023-02-02T13:07:49.540Z,87.30
2023-02-02T13:11:55.977Z,87.58
2023-02-02T13:16:08.025Z,88.14
2023-02-02T13:20:20.295Z,87.48
2023-02-02T13:24:32.190Z,87.72
2023-02-02T13:28:34.514Z,88.03
2023-02-02T13:32:47.530Z,86.90
2023-02-02T13:37:00.413Z,85.87
2023-02-02T13:45:50.842Z,84.27
2023-02-02T13:50:00.716Z,84.00
2023-02-02T13:54:13.043Z,84.45
2023-02-02T13:58:18.677Z,84.02
2023-02-02T14:02:31.550Z,82.35
2023-02-02T14:06:44.048Z,83.75
2023-02-02T14:10:49.664Z,85.53
2023-02-02T14:15:02.259Z,85.65
2023-02-02T14:19:12.531Z,85.93
2023-02-02T14:23:25.652Z,85.27
2023-02-02T14:27:38.277Z,85.32
2023-02-02T14:31:48.649Z,84.74
2023-02-02T14:36:06.775Z,84.92
2023-02-02T14:40:22.138Z,84.97
2023-02-02T14:44:33.978Z,84.64
2023-02-02T14:49:00.105Z,84.56
2023-02-02T14:53:12.178Z,85.28
2023-02-02T14:57:27.214Z,85.60
2023-02-02T15:01:45.853Z,85.86
2023-02-02T15:06:10.412Z,84.39
2023-02-02T15:10:22.886Z,84.39
2023-02-02T15:14:34.406Z,85.11
2023-02-02T15:18:55.441Z,86.02
2023-02-02T15:23:07.960Z,85.36
2023-02-02T15:27:21.962Z,84.59
2023-02-02T15:31:32.958Z,85.17
2023-02-02T15:35:45.687Z,84.70
2023-02-02T15:40:01.789Z,84.53
2023-02-02T15:44:14.024Z,85.78
2023-02-02T15:48:28.801Z,85.84
2023-02-02T15:52:35.499Z,86.36
2023-02-02T15:57:05.917Z,86.25
2023-02-02T16:01:13.195Z,86.21
2023-02-02T16:05:26.197Z,85.62
2023-02-02T16:09:39.268Z,86.39
2023-02-02T16:13:55.007Z,86.42
2023-02-02T16:18:01.220Z,86.42
2023-02-02T16:22:13.877Z,86.75
2023-02-02T16:26:32.115Z,87.11
2023-02-02T16:30:38.335Z,87.00
2023-02-02T16:34:50.839Z,87.10
2023-02-02T16:39:05.998Z,86.77
2023-02-02T16:43:18.687Z,85.21
2023-02-02T16:51:56.492Z,84.48
2023-02-02T16:56:03.370Z,85.24
2023-02-02T17:00:16.103Z,85.51
2023-02-02T17:04:28.423Z,84.07
2023-02-02T17:08:36.240Z,82.83
2023-02-02T17:13:00.452Z,81.78
2023-02-02T17:17:12.764Z,81.18
2023-02-02T17:21:25.013Z,80.16
2023-02-02T17:25:36.643Z,80.42
2023-02-02T17:29:49.061Z,80.02
2023-02-02T17:33:55.083Z,79.45
2023-02-02T17:38:21.874Z,80.51
2023-02-02T17:42:33.945Z,80.56
2023-02-02T17:46:41.744Z,80.21
2023-02-02T17:50:53.826Z,79.72
2023-02-02T17:54:55.827Z,79.34
2023-02-02T17:59:08.180Z,78.94
2023-02-02T18:03:20.577Z,79.08
2023-02-02T18:07:34.514Z,78.98
2023-02-02T18:11:47.317Z,78.41
2023-02-02T18:16:00.257Z,77.99
2023-02-02T18:20:18.963Z,77.20
2023-02-02T18:24:26.525Z,75.37
2023-02-02T18:28:39.065Z,75.68
2023-02-02T18:32:51.635Z,75.67
2023-02-02T18:37:17.707Z,75.74
2023-02-02T18:41:34.960Z,75.67
2023-02-02T18:45:47.704Z,77.08
2023-02-02T18:50:00.150Z,77.55
2023-02-02T18:54:12.428Z,77.82
2023-02-02T18:58:25.067Z,77.69
2023-02-02T19:02:30.161Z,75.64
2023-02-02T19:06:40.461Z,75.92
2023-02-02T19:10:52.398Z,76.72
2023-02-02T19:15:12.916Z,75.99
2023-02-02T19:19:09.035Z,76.42
2023-02-02T19:23:21.197Z,75.84
2023-02-02T19:27:32.984Z,76.65
2023-02-02T19:31:45.562Z,76.27
2023-02-02T19:36:00.620Z,73.45
2023-02-02T19:40:13.531Z,73.18
2023-02-02T19:44:25.769Z,73.13
2023-02-02T19:48:56.980Z,73.75
2023-02-02T19:53:08.600Z,74.20
2023-02-02T19:57:20.571Z,74.52
2023-02-02T20:01:32.575Z,75.18
2023-02-02T20:05:39.540Z,75.37
2023-02-02T20:09:51.304Z,75.32
2023-02-02T20:14:06.402Z,75.77
2023-02-02T20:18:08.386Z,75.63
2023-02-02T20:22:39.260Z,75.28
2023-02-02T20:26:49.181Z,74.57
2023-02-02T20:31:04.330Z,74.67
2023-02-02T20:35:16.180Z,75.33
2023-02-02T20:39:36.757Z,76.13
2023-02-02T20:43:48.867Z,75.84
2023-02-02T20:48:01.207Z,75.00
2023-02-02T20:52:12.926Z,74.49
2023-02-02T20:56:20.101Z,74.15
2023-02-02T21:00:32.820Z,73.99
2023-02-02T21:04:58.706Z,73.38
2023-02-02T21:09:05.772Z,73.44
2023-02-02T21:13:12.239Z,72.98
2023-02-02T21:17:24.582Z,73.20
2023-02-02T21:21:36.644Z,73.52
2023-02-02T21:25:40.698Z,74.22
2023-02-02T21:29:31.370Z,73.48
2023-02-02T21:33:43.882Z,73.92
2023-02-02T21:37:55.995Z,74.25
2023-02-02T21:42:08.162Z,74.58
2023-02-02T21:46:20.932Z,74.21
2023-02-02T21:50:33.197Z,74.38
2023-02-02T21:54:44.372Z,73.90
2023-02-02T21:58:55.748Z,73.81
2023-02-02T22:02:58.443Z,73.88
2023-02-02T22:07:10.435Z,73.82
2023-02-02T22:11:22.385Z,73.09
2023-02-02T22:15:34.542Z,73.08
2023-02-02T22:19:45.851Z,72.69
2023-02-02T22:23:58.422Z,72.53
2023-02-02T22:28:12.563Z,72.67
2023-02-02T22:32:25.370Z,72.92
2023-02-02T22:36:30.351Z,72.77
2023-02-02T22:40:45.573Z,72.54
2023-02-02T22:44:57.892Z,72.38
2023-02-02T22:49:10.478Z,72.75
2023-02-02T22:53:22.826Z,73.42
2023-02-02T22:57:35.324Z,73.54
2023-02-02T23:02:06.148Z,73.49
2023-02-02T23:06:17.640Z,73.39
2023-02-02T23:10:31.563Z,74.34
2023-02-02T23:14:43.627Z,75.18
2023-02-02T23:18:55.701Z,75.09
2023-02-02T23:23:00.652Z,75.21
2023-02-02T23:27:12.562Z,74.89
2023-02-02T23:31:24.446Z,74.89
2023-02-02T23:35:36.715Z,75.21
2023-02-02T23:39:48.865Z,75.80
2023-02-02T23:44:02.950Z,76.86
2023-02-02T23:48:14.997Z,77.04
2023-02-02T23:52:40.710Z,77.22
2023-02-02T23:56:53.038Z,77.09
